Time;durP1;ratioP1;P1;durP2;ratioP2;P2;SDS_P1;SDS_P2;PMS_P1;PMS_P2;Temp;Humidity;BMP_temperature;BMP_pressure;BME280_temperature;BME280_humidity;BME280_pressure;Samples;Min_cycle;Max_cycle;Signal;HPM_P1;HPM_P2
2021/05/06 00:32:00;;;;;;;4.17;2.57;;;6.30;99.90;;;;;;5113449;28;20526;-66
2021/05/06 00:34:26;;;;;;;4.37;2.50;;;6.30;99.90;;;;;;5113183;28;20462;-69
2021/05/06 00:36:53;;;;;;;3.23;2.20;;;6.40;99.90;;;;;;5113651;28;20453;-66
2021/05/06 00:39:22;;;;;;;4.63;1.97;;;6.40;99.90;;;;;;5113421;28;20479;-67
2021/05/06 01:01:31;;;;;;;2.97;1.60;;;6.60;99.90;;;;;;5112908;28;20452;-67
2021/05/06 01:04:08;;;;;;;3.03;1.50;;;6.60;99.90;;;;;;5113178;28;20464;-66
2021/05/06 01:06:43;;;;;;;4.07;2.13;;;6.60;99.90;;;;;;5113976;28;20444;-66
2021/05/06 01:09:12;;;;;;;3.80;2.27;;;6.70;99.90;;;;;;5113318;28;20445;-66
2021/05/06 01:11:41;;;;;;;2.60;1.87;;;6.60;99.90;;;;;;5113243;28;20534;-66
2021/05/06 01:14:09;;;;;;;2.40;1.80;;;6.70;99.90;;;;;;5112340;28;20466;-66
2021/05/06 01:16:36;;;;;;;4.07;2.47;;;6.70;99.90;;;;;;5113317;28;20844;-66
2021/05/06 01:19:04;;;;;;;2.30;1.83;;;6.60;99.90;;;;;;5113531;28;20811;-67
2021/05/06 01:21:31;;;;;;;3.90;1.80;;;6.60;99.90;;;;;;5113232;28;20441;-67
2021/05/06 01:23:59;;;;;;;3.27;2.47;;;6.70;99.90;;;;;;5113106;28;20503;-67
2021/05/06 01:26:31;;;;;;;3.57;1.77;;;6.70;99.90;;;;;;5112315;28;20442;-67
2021/05/06 01:29:00;;;;;;;3.57;1.73;;;6.70;99.90;;;;;;5112844;28;20442;-67
2021/05/06 01:31:30;;;;;;;3.30;1.70;;;6.70;99.90;;;;;;5112668;28;20469;-68
2021/05/06 01:34:05;;;;;;;5.20;1.97;;;6.70;99.90;;;;;;5112181;28;20960;-67
2021/05/06 01:36:35;;;;;;;2.97;1.43;;;6.70;99.90;;;;;;5112599;28;20441;-67
2021/05/06 01:39:19;;;;;;;4.23;2.20;;;6.70;99.90;;;;;;5112327;28;20932;-67
2021/05/06 01:41:53;;;;;;;2.80;2.00;;;6.60;99.90;;;;;;5112436;28;20858;-67
2021/05/06 01:44:38;;;;;;;5.17;1.70;;;6.70;99.90;;;;;;5112032;28;20473;-67
2021/05/06 01:47:09;;;;;;;3.37;1.90;;;6.80;99.90;;;;;;5112275;28;20480;-67
2021/05/06 01:58:20;;;;;;;4.93;2.27;;;6.80;99.90;;;;;;5112021;28;20853;-67
2021/05/06 02:00:52;;;;;;;3.60;1.80;;;6.80;99.90;;;;;;5112217;28;20469;-67
2021/05/06 02:03:19;;;;;;;5.13;2.17;;;6.90;99.90;;;;;;5111619;28;20544;-65
2021/05/06 02:05:45;;;;;;;5.70;2.13;;;7.00;99.90;;;;;;5111947;28;20571;-67
2021/05/06 02:08:12;;;;;;;3.13;1.30;;;7.00;99.90;;;;;;5111922;28;20521;-66
2021/05/06 02:10:39;;;;;;;3.00;1.50;;;7.00;99.90;;;;;;5111642;28;20499;-66
2021/05/06 02:13:05;;;;;;;3.23;1.80;;;7.00;99.90;;;;;;5111509;28;20469;-66
2021/05/06 02:15:35;;;;;;;3.67;2.20;;;7.10;99.90;;;;;;5111492;28;21015;-66
2021/05/06 02:18:02;;;;;;;4.30;1.77;;;7.10;99.90;;;;;;5111648;28;20455;-66
2021/05/06 02:20:28;;;;;;;2.40;2.20;;;7.10;99.90;;;;;;5111870;28;20529;-66
2021/05/06 02:22:55;;;;;;;6.20;2.03;;;7.20;99.90;;;;;;5112002;28;20437;-66
2021/05/06 02:25:22;;;;;;;5.43;2.20;;;7.20;99.90;;;;;;5111098;28;20520;-66
2021/05/06 02:27:49;;;;;;;3.13;1.70;;;7.20;99.90;;;;;;5111502;28;20484;-66
2021/05/06 02:30:17;;;;;;;3.70;1.90;;;7.20;99.90;;;;;;5111849;28;20453;-66
2021/05/06 02:32:43;;;;;;;5.17;1.70;;;7.10;99.90;;;;;;5111666;28;20852;-66
2021/05/06 02:35:10;;;;;;;3.43;1.93;;;7.10;99.90;;;;;;5110637;28;21236;-66
2021/05/06 02:37:36;;;;;;;2.90;1.77;;;7.00;99.90;;;;;;5110949;28;20947;-67
2021/05/06 02:40:04;;;;;;;2.70;1.83;;;7.00;99.90;;;;;;5110861;28;20473;-70
2021/05/06 02:42:32;;;;;;;4.37;2.20;;;6.90;99.90;;;;;;5110838;28;20829;-66
2021/05/06 02:44:58;;;;;;;2.50;1.67;;;6.90;99.90;;;;;;5110689;28;20601;-66
2021/05/06 02:47:24;;;;;;;2.43;1.60;;;6.90;99.90;;;;;;5111121;28;20879;-66
2021/05/06 02:49:51;;;;;;;3.83;2.47;;;6.90;99.90;;;;;;5110924;28;20499;-66
2021/05/06 02:52:23;;;;;;;3.23;1.70;;;7.00;99.90;;;;;;5110763;28;20488;-66
2021/05/06 02:54:54;;;;;;;3.20;1.77;;;7.00;99.90;;;;;;5110540;28;20476;-66
2021/05/06 02:57:24;;;;;;;4.60;2.30;;;7.00;99.90;;;;;;5110936;28;20988;-66
2021/05/06 03:02:49;;;;;;;3.60;2.30;;;7.10;99.90;;;;;;5110969;28;20417;-66
2021/05/06 03:05:16;;;;;;;4.03;1.90;;;7.10;99.90;;;;;;5110614;28;20450;-67
2021/05/06 03:07:47;;;;;;;3.40;2.70;;;7.00;99.90;;;;;;5110734;28;20471;-67
2021/05/06 03:10:22;;;;;;;2.83;1.80;;;7.10;99.90;;;;;;5110590;28;20442;-66
2021/05/06 03:21:30;;;;;;;9.20;2.67;;;7.10;99.90;;;;;;5110745;28;20836;-66
2021/05/06 03:23:58;;;;;;;3.30;2.03;;;7.10;99.90;;;;;;5110207;28;20460;-66
2021/05/06 03:26:24;;;;;;;8.00;2.33;;;7.20;99.90;;;;;;5110494;28;20876;-66
2021/05/06 03:28:54;;;;;;;4.00;1.90;;;7.20;99.90;;;;;;5110836;28;20468;-66
2021/05/06 03:42:18;;;;;;;7.33;2.40;;;7.00;99.90;;;;;;5114100;28;20470;-66
2021/05/06 03:44:57;;;;;;;4.83;1.77;;;6.90;99.90;;;;;;5113751;28;20468;-66
2021/05/06 04:15:29;;;;;;;5.87;2.80;;;6.20;99.90;;;;;;5070320;28;20450;-67
2021/05/06 04:18:03;;;;;;;4.50;2.93;;;6.20;99.90;;;;;;5070658;28;20443;-67
2021/05/06 04:26:19;;;;;;;3.80;2.30;;;6.30;99.90;;;;;;5070607;28;20439;-67
2021/05/06 04:36:58;;;;;;;3.83;2.60;;;6.30;99.90;;;;;;5113026;28;20413;-67
2021/05/06 04:39:30;;;;;;;4.20;2.43;;;6.30;99.90;;;;;;5113000;28;20536;-67
2021/05/06 04:42:12;;;;;;;4.20;2.37;;;6.30;99.90;;;;;;5112870;28;20437;-67
2021/05/06 04:50:26;;;;;;;3.80;2.17;;;6.40;99.90;;;;;;5112636;28;20409;-67
2021/05/06 04:55:41;;;;;;;3.13;2.10;;;6.50;99.90;;;;;;5112527;28;20793;-68
2021/05/06 05:03:39;;;;;;;4.27;3.10;;;6.70;99.90;;;;;;5112630;28;20518;-66
2021/05/06 05:06:08;;;;;;;6.93;2.53;;;6.70;99.90;;;;;;5112466;28;20503;-67
2021/05/06 05:08:40;;;;;;;5.30;2.87;;;6.70;99.90;;;;;;5102230;28;20450;-67
2021/05/06 05:14:12;;;;;;;4.00;2.50;;;6.80;99.90;;;;;;5107237;28;20452;-67
2021/05/06 05:24:58;;;;;;;4.50;2.73;;;7.40;99.90;;;;;;5111567;27;20853;-67
2021/05/06 05:27:24;;;;;;;3.77;2.33;;;7.60;99.90;;;;;;5109669;28;20473;-66
2021/05/06 05:29:51;;;;;;;6.83;3.30;;;7.80;99.90;;;;;;5109328;28;20617;-66
2021/05/06 05:32:18;;;;;;;4.27;2.60;;;7.90;99.90;;;;;;5110420;28;20473;-67
2021/05/06 05:34:46;;;;;;;6.90;3.23;;;8.10;99.90;;;;;;5109053;28;21062;-67
2021/05/06 05:37:17;;;;;;;4.70;3.23;;;8.00;99.90;;;;;;5110561;28;20445;-70
2021/05/06 05:39:56;;;;;;;5.67;3.30;;;8.10;99.90;;;;;;5102942;27;20506;-67
2021/05/06 05:42:30;;;;;;;5.60;2.90;;;8.20;99.90;;;;;;5109344;27;20455;-68
2021/05/06 05:45:28;;;;;;;3.80;3.13;;;8.30;99.90;;;;;;5108919;28;20468;-68
2021/05/06 05:56:18;;;;;;;3.90;3.10;;;8.50;99.90;;;;;;5103201;28;20433;-69
2021/05/06 05:58:46;;;;;;;5.27;3.47;;;8.60;99.90;;;;;;5108920;28;20544;-69
2021/05/06 06:01:12;;;;;;;5.00;3.03;;;8.60;99.90;;;;;;5107978;28;20483;-69
2021/05/06 06:03:38;;;;;;;5.30;3.30;;;8.60;99.90;;;;;;5111810;27;20898;-69
2021/05/06 06:06:05;;;;;;;11.80;3.30;;;8.50;99.90;;;;;;5108477;28;20465;-68
2021/05/06 06:08:33;;;;;;;4.93;3.40;;;8.40;99.90;;;;;;5109747;28;20433;-68
2021/05/06 06:10:59;;;;;;;7.03;3.87;;;8.40;99.90;;;;;;5109444;27;20447;-68
2021/05/06 06:13:26;;;;;;;5.23;3.63;;;8.50;99.90;;;;;;5109545;28;20905;-68
2021/05/06 06:15:59;;;;;;;7.50;3.80;;;8.50;99.90;;;;;;5101722;28;20525;-68
2021/05/06 06:18:31;;;;;;;4.83;3.80;;;8.50;99.90;;;;;;5104739;28;20804;-68
2021/05/06 06:21:02;;;;;;;4.63;3.03;;;8.40;99.90;;;;;;5108274;28;20452;-68
2021/05/06 06:23:29;;;;;;;7.40;3.77;;;8.40;99.90;;;;;;5107930;28;20980;-68
2021/05/06 06:25:56;;;;;;;7.40;3.07;;;8.30;99.90;;;;;;5107651;28;20566;-66
2021/05/06 06:28:22;;;;;;;5.67;2.60;;;8.20;99.90;;;;;;5108408;28;20433;-68
2021/05/06 06:30:49;;;;;;;7.40;2.97;;;8.20;99.90;;;;;;5108310;28;20437;-68
2021/05/06 06:33:17;;;;;;;3.90;2.37;;;8.20;99.90;;;;;;5107964;28;20453;-68
2021/05/06 06:35:43;;;;;;;2.73;2.00;;;8.20;99.90;;;;;;5106938;28;20477;-68
2021/05/06 06:38:10;;;;;;;5.17;2.40;;;8.10;99.90;;;;;;5108937;28;20453;-68
2021/05/06 06:40:36;;;;;;;4.13;2.80;;;8.10;99.90;;;;;;5108138;28;20473;-68
2021/05/06 06:43:03;;;;;;;3.75;2.50;;;8.00;99.90;;;;;;5107004;28;21074;-68
2021/05/06 06:45:30;;;;;;;4.90;2.43;;;8.00;99.90;;;;;;5107082;28;20227;-67
2021/05/06 06:47:56;;;;;;;4.50;2.50;;;7.90;99.90;;;;;;5108252;28;20809;-69
2021/05/06 06:50:24;;;;;;;4.37;2.63;;;7.90;99.90;;;;;;5108150;28;20536;-68
2021/05/06 06:52:50;;;;;;;5.40;2.80;;;8.00;99.90;;;;;;5108012;28;20483;-68
2021/05/06 06:55:17;;;;;;;4.47;2.60;;;8.00;99.90;;;;;;5107154;28;20532;-67
2021/05/06 06:57:44;;;;;;;5.73;2.60;;;8.10;99.90;;;;;;5108209;28;20445;-68
2021/05/06 07:00:11;;;;;;;5.07;2.80;;;8.10;99.90;;;;;;5108110;28;20501;-68
2021/05/06 07:02:38;;;;;;;4.93;3.13;;;8.00;99.90;;;;;;5107661;28;21012;-68
2021/05/06 07:05:05;;;;;;;8.40;2.90;;;8.00;99.90;;;;;;5106058;28;20465;-68
2021/05/06 07:07:32;;;;;;;5.80;2.63;;;8.10;99.90;;;;;;5108335;28;20528;-68
2021/05/06 07:09:59;;;;;;;4.60;2.97;;;8.00;99.90;;;;;;5108180;28;20477;-68
2021/05/06 07:12:25;;;;;;;6.13;2.83;;;8.00;99.90;;;;;;5108352;28;20512;-69
2021/05/06 07:14:52;;;;;;;5.13;3.00;;;8.10;99.90;;;;;;5111219;28;20472;-68
2021/05/06 07:17:18;;;;;;;6.60;2.80;;;8.10;99.90;;;;;;5111450;28;20441;-69
2021/05/06 07:19:44;;;;;;;4.37;3.10;;;8.30;99.90;;;;;;5102716;28;20477;-69
2021/05/06 07:22:11;;;;;;;4.10;2.73;;;8.40;99.90;;;;;;5110385;28;20465;-68
2021/05/06 07:24:38;;;;;;;4.67;3.20;;;8.50;99.90;;;;;;5109590;28;20543;-69
2021/05/06 07:27:05;;;;;;;5.00;2.97;;;8.60;99.90;;;;;;5110662;28;20527;-68
2021/05/06 07:29:32;;;;;;;4.23;2.40;;;8.70;99.90;;;;;;5110913;28;20441;-69
2021/05/06 07:31:58;;;;;;;4.40;2.97;;;8.80;99.90;;;;;;5110900;28;20483;-69
2021/05/06 07:34:25;;;;;;;7.10;3.17;;;8.90;99.90;;;;;;5110856;28;20477;-69
2021/05/06 07:36:51;;;;;;;6.53;2.63;;;9.00;99.90;;;;;;5111420;28;20589;-69
2021/05/06 07:39:18;;;;;;;4.27;2.10;;;9.00;99.90;;;;;;5112050;28;21027;-69
2021/05/06 07:41:45;;;;;;;7.70;2.50;;;9.00;99.90;;;;;;5111527;28;20469;-69
2021/05/06 07:44:11;;;;;;;2.63;2.20;;;8.90;99.90;;;;;;5111222;28;20461;-69
2021/05/06 07:46:38;;;;;;;5.93;1.93;;;8.90;99.90;;;;;;5111811;28;20529;-69
2021/05/06 07:49:04;;;;;;;4.20;2.50;;;9.10;99.90;;;;;;5111546;28;20477;-68
2021/05/06 07:51:31;;;;;;;4.10;2.13;;;9.20;99.90;;;;;;5111664;28;20477;-68
2021/05/06 07:54:04;;;;;;;4.00;2.03;;;9.30;99.90;;;;;;5111253;28;20567;-68
2021/05/06 07:56:30;;;;;;;3.90;2.33;;;9.60;99.90;;;;;;5111396;28;20956;-69
2021/05/06 07:58:58;;;;;;;8.00;3.10;;;9.80;99.90;;;;;;5111494;27;20473;-69
2021/05/06 08:01:24;;;;;;;6.50;2.90;;;10.00;99.90;;;;;;5111220;28;20574;-69
2021/05/06 08:03:52;;;;;;;5.60;2.50;;;10.00;99.90;;;;;;5110935;28;20508;-69
2021/05/06 08:06:20;;;;;;;4.13;2.30;;;10.10;99.90;;;;;;5107902;28;20529;-69
2021/05/06 08:08:47;;;;;;;4.40;1.90;;;10.10;99.90;;;;;;5108950;28;20514;-69
2021/05/06 08:11:14;;;;;;;4.70;2.10;;;10.20;99.90;;;;;;5110361;28;20465;-69
2021/05/06 08:13:41;;;;;;;6.23;2.67;;;10.20;99.90;;;;;;5110878;28;20461;-69
2021/05/06 08:16:08;;;;;;;5.00;2.60;;;10.30;99.90;;;;;;5110874;28;20445;-69
2021/05/06 08:18:35;;;;;;;6.30;1.90;;;10.20;99.90;;;;;;5111218;28;20445;-69
2021/05/06 08:21:01;;;;;;;6.03;2.23;;;10.20;99.90;;;;;;5111420;28;20468;-69
2021/05/06 08:23:27;;;;;;;3.33;2.10;;;10.10;99.90;;;;;;5110662;28;20473;-69
2021/05/06 08:25:54;;;;;;;4.83;2.67;;;10.10;99.90;;;;;;5110202;27;20458;-69
2021/05/06 08:28:20;;;;;;;4.00;1.90;;;10.00;99.90;;;;;;5110300;28;20441;-69
2021/05/06 08:30:47;;;;;;;5.20;2.10;;;10.00;99.90;;;;;;5111140;28;20872;-69
2021/05/06 08:33:14;;;;;;;5.20;2.03;;;9.90;99.90;;;;;;5111148;28;20508;-68
2021/05/06 08:35:40;;;;;;;3.93;2.10;;;9.90;99.90;;;;;;5110827;28;21005;-68
2021/05/06 08:38:07;;;;;;;5.77;2.10;;;10.00;99.90;;;;;;5110498;28;20477;-69
2021/05/06 08:40:35;;;;;;;6.03;2.20;;;10.00;99.90;;;;;;5110414;28;20533;-68
2021/05/06 08:43:05;;;;;;;4.67;2.13;;;10.00;99.90;;;;;;5110215;28;20442;-69
2021/05/06 08:45:35;;;;;;;4.60;2.43;;;10.00;99.90;;;;;;5110199;28;20468;-69
2021/05/06 08:48:03;;;;;;;7.50;2.03;;;10.00;99.90;;;;;;5110502;28;20984;-69
2021/05/06 08:50:31;;;;;;;5.30;2.17;;;10.10;99.90;;;;;;5110456;28;20449;-69
2021/05/06 08:52:58;;;;;;;6.87;2.87;;;10.00;99.90;;;;;;5110805;28;20484;-69
2021/05/06 08:55:25;;;;;;;4.67;2.30;;;10.00;99.90;;;;;;5110123;28;20477;-68
2021/05/06 08:57:51;;;;;;;4.73;2.23;;;10.10;99.90;;;;;;5110699;28;20445;-68
2021/05/06 09:00:19;;;;;;;5.97;2.70;;;10.20;99.90;;;;;;5110820;28;20529;-67
2021/05/06 09:02:47;;;;;;;7.20;2.50;;;10.10;99.90;;;;;;5110271;28;20499;-68
2021/05/06 09:05:14;;;;;;;4.23;2.27;;;10.10;99.90;;;;;;5110605;28;20465;-67
2021/05/06 09:07:46;;;;;;;5.30;2.30;;;10.00;99.90;;;;;;5127864;27;21111;-68
2021/05/06 09:10:30;;;;;;;3.90;2.13;;;10.00;99.90;;;;;;5130951;27;20447;-67
2021/05/06 09:12:57;;;;;;;4.73;2.30;;;10.00;99.90;;;;;;5130453;27;20567;-68
2021/05/06 09:15:24;;;;;;;7.27;2.30;;;9.90;99.90;;;;;;5130424;27;20476;-67
2021/05/06 09:17:52;;;;;;;6.73;2.20;;;9.90;99.90;;;;;;5130704;27;20869;-67
2021/05/06 09:20:20;;;;;;;3.70;2.23;;;9.80;99.90;;;;;;5130491;27;20535;-67
2021/05/06 09:22:49;;;;;;;5.03;2.40;;;9.90;99.90;;;;;;5130476;27;20501;-67
2021/05/06 09:25:30;;;;;;;3.77;2.37;;;9.90;99.90;;;;;;5129902;27;21102;-67
2021/05/06 09:28:08;;;;;;;9.43;2.40;;;9.90;99.90;;;;;;5130003;27;20476;-67
2021/05/06 09:30:37;;;;;;;7.47;2.47;;;9.90;99.90;;;;;;5130045;27;20486;-67
2021/05/06 09:33:05;;;;;;;6.83;3.83;;;9.90;99.90;;;;;;5118608;27;20507;-67
2021/05/06 09:35:40;;;;;;;4.50;2.40;;;9.90;99.90;;;;;;5106883;28;20929;-67
2021/05/06 09:38:26;;;;;;;5.37;2.13;;;10.00;99.90;;;;;;5102426;28;21058;-67
2021/05/06 09:40:53;;;;;;;4.23;2.53;;;10.20;99.90;;;;;;5103170;28;20445;-67
2021/05/06 09:43:25;;;;;;;6.10;2.00;;;10.20;99.90;;;;;;5109251;28;20482;-67
2021/05/06 09:45:52;;;;;;;7.63;2.10;;;10.40;99.90;;;;;;5108326;28;20441;-67
2021/05/06 09:48:20;;;;;;;7.67;3.10;;;10.50;99.90;;;;;;5109374;28;20441;-67
2021/05/06 09:50:48;;;;;;;4.53;2.13;;;10.60;99.90;;;;;;5108942;28;20978;-68
2021/05/06 09:53:18;;;;;;;5.60;2.23;;;10.60;99.90;;;;;;5109033;28;20568;-68
2021/05/06 09:55:46;;;;;;;6.00;2.40;;;10.80;99.90;;;;;;5108601;28;20982;-68
2021/05/06 09:58:18;;;;;;;6.47;2.23;;;10.90;99.90;;;;;;5108492;28;20959;-68
2021/05/06 10:00:46;;;;;;;6.53;2.50;;;10.90;99.90;;;;;;5109013;28;21083;-68
2021/05/06 10:03:14;;;;;;;5.33;2.67;;;10.90;99.90;;;;;;5108489;28;21050;-68
2021/05/06 10:05:41;;;;;;;7.53;3.50;;;10.80;99.90;;;;;;5104675;28;20868;-68
2021/05/06 10:08:08;;;;;;;9.50;2.73;;;10.90;99.90;;;;;;5108294;28;20437;-68
2021/05/06 10:10:36;;;;;;;6.80;2.20;;;10.90;99.90;;;;;;5107991;28;20940;-68
2021/05/06 10:13:05;;;;;;;6.10;3.00;;;11.10;99.90;;;;;;5108308;28;20476;-68
2021/05/06 10:15:31;;;;;;;3.97;2.57;;;11.10;99.90;;;;;;5108399;28;20928;-68
2021/05/06 10:17:58;;;;;;;8.73;2.77;;;11.20;99.90;;;;;;5108298;28;20449;-68
2021/05/06 10:20:26;;;;;;;6.30;2.37;;;11.20;99.90;;;;;;5108540;28;20445;-68
2021/05/06 10:22:53;;;;;;;4.77;2.43;;;11.20;99.90;;;;;;5108466;28;20445;-68
2021/05/06 10:25:22;;;;;;;6.33;2.80;;;11.40;99.90;;;;;;5108505;28;20528;-69
2021/05/06 10:27:50;;;;;;;11.87;2.87;;;11.40;99.90;;;;;;5108267;28;20445;-69
2021/05/06 10:30:18;;;;;;;4.87;2.97;;;11.40;99.90;;;;;;5105353;28;20471;-69
2021/05/06 10:32:45;;;;;;;6.10;2.73;;;11.30;99.90;;;;;;5107689;28;20484;-69
2021/05/06 10:35:14;;;;;;;5.07;2.90;;;11.30;99.90;;;;;;5108022;28;20548;-69
2021/05/06 10:37:44;;;;;;;5.17;3.00;;;11.40;99.90;;;;;;5106114;28;20549;-69
2021/05/06 10:40:32;;;;;;;8.60;3.20;;;11.40;99.90;;;;;;5098535;28;20525;-69
2021/05/06 10:43:19;;;;;;;7.63;3.17;;;11.50;99.90;;;;;;5101507;28;20940;-69
2021/05/06 10:46:00;;;;;;;6.37;3.57;;;11.30;99.90;;;;;;5108619;28;20570;-69
2021/05/06 10:48:59;;;;;;;5.20;3.80;;;11.20;99.90;;;;;;5108511;28;20524;-69
2021/05/06 10:51:39;;;;;;;8.60;3.25;;;11.10;99.90;;;;;;5030190;28;21202;-69
2021/05/06 10:54:25;;;;;;;9.37;3.23;;;11.00;99.90;;;;;;5099535;28;20349;-69
2021/05/06 10:56:52;;;;;;;5.50;2.23;;;11.00;99.90;;;;;;5108158;28;20437;-69
2021/05/06 10:59:24;;;;;;;6.00;2.47;;;10.80;99.90;;;;;;5106575;28;20940;-69
2021/05/06 11:01:51;;;;;;;5.20;2.47;;;10.70;99.90;;;;;;5107867;28;20491;-68
2021/05/06 11:04:31;;;;;;;3.53;2.50;;;10.60;99.90;;;;;;5107941;28;20457;-68
2021/05/06 11:07:13;;;;;;;4.67;2.23;;;10.60;99.90;;;;;;5108252;28;21025;-69
2021/05/06 11:09:57;;;;;;;2.67;2.20;;;10.60;99.90;;;;;;5108591;28;20556;-68
2021/05/06 11:12:31;;;;;;;3.73;2.40;;;10.60;99.90;;;;;;5107847;28;20472;-69
2021/05/06 11:15:30;;;;;;;3.33;1.97;;;10.60;99.90;;;;;;5107496;28;20797;-68
2021/05/06 11:18:00;;;;;;;4.10;2.17;;;10.70;99.90;;;;;;5107331;28;20940;-68
2021/05/06 11:20:55;;;;;;;5.00;2.20;;;10.80;99.90;;;;;;5097125;28;21068;-68
2021/05/06 11:23:25;;;;;;;4.10;2.50;;;10.80;99.90;;;;;;5102744;28;20851;-67
2021/05/06 11:25:53;;;;;;;4.70;2.97;;;10.90;99.90;;;;;;5103972;28;20544;-67
2021/05/06 11:28:39;;;;;;;3.60;1.83;;;10.90;99.90;;;;;;5102208;28;20456;-67
2021/05/06 11:31:06;;;;;;;2.60;1.90;;;10.80;99.90;;;;;;5100579;28;20586;-67
2021/05/06 11:33:33;;;;;;;3.60;1.90;;;10.80;99.90;;;;;;5107601;28;20556;-68
2021/05/06 11:36:02;;;;;;;4.00;2.07;;;10.80;99.90;;;;;;5099164;28;20528;-67
2021/05/06 11:38:59;;;;;;;2.63;1.90;;;10.70;99.90;;;;;;5107907;28;20510;-68
2021/05/06 11:41:33;;;;;;;4.20;1.47;;;10.60;99.90;;;;;;5107875;28;20921;-67
2021/05/06 11:44:03;;;;;;;3.63;2.10;;;10.60;99.90;;;;;;5107852;28;20465;-68
2021/05/06 11:46:31;;;;;;;5.33;1.70;;;10.70;99.90;;;;;;5108438;28;20445;-67
2021/05/06 11:48:59;;;;;;;3.40;1.70;;;10.80;99.90;;;;;;5108343;28;20532;-67
2021/05/06 11:51:30;;;;;;;3.43;1.40;;;10.80;99.90;;;;;;5113116;28;20451;-66
2021/05/06 11:54:10;;;;;;;2.80;1.20;;;10.90;99.90;;;;;;5127620;27;20460;-66
2021/05/06 11:56:38;;;;;;;3.80;1.50;;;11.00;99.90;;;;;;5125619;27;20564;-67
2021/05/06 11:59:06;;;;;;;3.33;1.50;;;10.90;99.90;;;;;;5102023;28;21203;-67
2021/05/06 12:01:34;;;;;;;4.00;2.07;;;10.90;99.90;;;;;;5115432;27;20441;-67
2021/05/06 12:04:01;;;;;;;2.20;1.43;;;11.00;99.90;;;;;;5111751;27;20465;-67
2021/05/06 12:06:29;;;;;;;2.33;1.70;;;11.10;99.90;;;;;;5111052;28;20480;-67
2021/05/06 12:08:56;;;;;;;4.47;1.43;;;11.00;99.90;;;;;;5106633;28;20477;-67
2021/05/06 12:11:31;;;;;;;4.43;1.90;;;10.80;99.90;;;;;;5117623;27;20452;-67
2021/05/06 12:13:58;;;;;;;2.87;1.40;;;10.90;99.90;;;;;;5110152;28;20537;-67
2021/05/06 12:16:26;;;;;;;4.37;1.67;;;10.80;99.90;;;;;;5110868;28;20441;-67
2021/05/06 12:19:03;;;;;;;4.17;1.90;;;10.80;99.90;;;;;;5111273;28;20461;-67
2021/05/06 12:21:42;;;;;;;3.13;1.60;;;10.80;99.90;;;;;;5090681;28;20481;-67
2021/05/06 12:24:10;;;;;;;4.57;1.53;;;10.90;99.90;;;;;;5090755;28;20602;-66
2021/05/06 12:26:37;;;;;;;2.10;1.50;;;10.70;99.90;;;;;;5090753;28;20459;-67
2021/05/06 12:29:04;;;;;;;2.70;1.10;;;10.80;99.90;;;;;;5095540;28;20498;-66
2021/05/06 12:31:44;;;;;;;1.97;1.20;;;10.80;99.90;;;;;;5106079;28;20442;-69
2021/05/06 12:34:19;;;;;;;2.27;1.40;;;10.60;99.90;;;;;;5103951;28;20904;-68
2021/05/06 12:36:53;;;;;;;4.33;1.03;;;10.40;99.90;;;;;;5110903;28;20988;-68
2021/05/06 12:39:21;;;;;;;1.80;1.20;;;10.40;99.90;;;;;;5110826;28;20535;-68
2021/05/06 12:41:56;;;;;;;2.40;1.10;;;10.30;99.90;;;;;;5110604;28;20464;-67
2021/05/06 12:44:41;;;;;;;2.87;1.30;;;10.20;99.90;;;;;;5104197;27;20607;-68
2021/05/06 12:47:20;;;;;;;2.90;1.07;;;10.10;99.90;;;;;;5102919;28;20438;-68
2021/05/06 12:49:49;;;;;;;2.63;1.50;;;10.10;99.90;;;;;;5109628;28;20476;-68
2021/05/06 12:52:34;;;;;;;3.77;1.13;;;10.00;99.90;;;;;;5109243;28;20488;-68
2021/05/06 12:55:02;;;;;;;2.43;1.17;;;9.80;99.90;;;;;;5100996;27;20500;-68
2021/05/06 12:57:29;;;;;;;2.07;1.10;;;9.80;99.90;;;;;;5103276;27;20452;-68
2021/05/06 13:00:16;;;;;;;2.60;1.10;;;9.70;99.90;;;;;;5101129;28;20510;-69
2021/05/06 13:02:42;;;;;;;2.00;1.17;;;9.70;99.90;;;;;;5106917;28;20963;-68
2021/05/06 13:05:10;;;;;;;3.07;1.10;;;9.60;99.90;;;;;;5109853;28;21023;-68
2021/05/06 13:07:50;;;;;;;3.23;1.20;;;9.60;99.90;;;;;;5110504;28;20445;-68
2021/05/06 13:10:30;;;;;;;2.67;1.70;;;9.50;99.90;;;;;;5110095;28;20808;-67
2021/05/06 13:12:58;;;;;;;2.30;1.60;;;9.50;99.90;;;;;;5108676;28;20479;-68
2021/05/06 13:15:26;;;;;;;3.33;1.87;;;9.50;99.90;;;;;;5109682;28;20479;-68
2021/05/06 13:17:52;;;;;;;3.30;1.50;;;9.50;99.90;;;;;;5110060;27;20803;-69
2021/05/06 13:20:21;;;;;;;2.37;1.63;;;9.50;99.90;;;;;;5109492;27;20487;-70
2021/05/06 13:23:05;;;;;;;3.33;1.53;;;9.40;99.90;;;;;;5110252;28;20524;-69
2021/05/06 13:25:43;;;;;;;5.47;1.80;;;9.30;99.90;;;;;;5109835;28;20437;-68
2021/05/06 13:28:10;;;;;;;4.77;1.80;;;9.30;99.90;;;;;;5107444;28;20503;-66
2021/05/06 13:30:36;;;;;;;3.67;1.87;;;9.40;99.90;;;;;;5106367;28;20615;-67
2021/05/06 13:33:12;;;;;;;2.80;2.10;;;9.30;99.90;;;;;;5105147;28;20508;-67
2021/05/06 13:35:40;;;;;;;2.80;1.80;;;9.30;99.90;;;;;;5103502;28;20453;-67
2021/05/06 13:38:06;;;;;;;2.57;1.90;;;9.20;99.90;;;;;;5109680;28;20469;-68
2021/05/06 13:40:33;;;;;;;3.67;2.50;;;9.10;99.90;;;;;;5109775;28;20956;-67
2021/05/06 13:42:59;;;;;;;2.70;1.70;;;9.10;99.90;;;;;;5097721;28;20558;-68
2021/05/06 13:45:26;;;;;;;3.63;2.10;;;9.10;99.90;;;;;;5090107;28;20529;-68
2021/05/06 13:47:52;;;;;;;4.40;2.47;;;9.20;99.90;;;;;;5101581;28;20449;-68
2021/05/06 13:50:19;;;;;;;3.20;2.03;;;9.30;99.90;;;;;;5109722;28;20520;-68
2021/05/06 13:52:46;;;;;;;3.10;2.77;;;9.40;99.90;;;;;;5108477;28;20618;-68
2021/05/06 13:55:14;;;;;;;2.83;2.40;;;9.50;99.90;;;;;;5107393;28;21041;-68
2021/05/06 13:57:42;;;;;;;2.70;2.20;;;9.40;99.90;;;;;;5109790;28;20452;-67
2021/05/06 14:00:10;;;;;;;4.60;2.50;;;9.40;99.90;;;;;;5109946;28;20456;-67
2021/05/06 14:02:37;;;;;;;7.83;3.70;;;9.30;99.90;;;;;;5110463;28;20469;-67
2021/05/06 14:05:04;;;;;;;3.93;3.23;;;9.50;99.90;;;;;;5109293;28;20468;-68
2021/05/06 14:07:30;;;;;;;3.70;2.70;;;9.60;99.90;;;;;;5104670;28;20541;-67
2021/05/06 14:09:57;;;;;;;4.13;2.90;;;9.80;99.90;;;;;;5109137;28;20437;-68
2021/05/06 14:12:24;;;;;;;5.53;2.37;;;9.80;99.90;;;;;;5109657;28;20476;-67
2021/05/06 14:14:50;;;;;;;6.40;3.27;;;9.90;99.90;;;;;;5109377;28;20552;-67
2021/05/06 14:17:16;;;;;;;7.97;3.70;;;10.00;99.90;;;;;;5107324;27;20460;-68
2021/05/06 14:19:43;;;;;;;4.83;2.53;;;10.00;99.90;;;;;;5109686;28;21027;-68
2021/05/06 14:22:09;;;;;;;3.90;2.70;;;10.00;99.90;;;;;;5106786;28;21163;-67
2021/05/06 14:24:35;;;;;;;3.87;2.60;;;10.00;99.90;;;;;;5107960;28;20457;-67
2021/05/06 14:27:03;;;;;;;3.40;2.30;;;10.00;99.90;;;;;;5108569;28;20520;-68
2021/05/06 14:29:29;;;;;;;8.67;3.33;;;9.80;99.90;;;;;;5109714;28;20826;-68
2021/05/06 14:31:56;;;;;;;4.47;2.93;;;9.80;99.90;;;;;;5108477;28;20476;-68
2021/05/06 14:34:22;;;;;;;6.30;3.60;;;9.80;99.90;;;;;;5108279;28;20506;-68
2021/05/06 14:36:48;;;;;;;4.30;3.83;;;9.90;99.90;;;;;;5108122;28;20491;-68
2021/05/06 14:39:16;;;;;;;4.70;3.30;;;9.90;99.90;;;;;;5107719;28;20437;-68
2021/05/06 14:41:42;;;;;;;4.30;3.53;;;9.90;99.90;;;;;;5106142;28;20444;-67
2021/05/06 14:44:10;;;;;;;4.30;3.63;;;9.90;99.90;;;;;;5108184;28;20464;-67
2021/05/06 14:46:37;;;;;;;5.17;3.63;;;10.00;99.90;;;;;;5107959;28;21054;-67
2021/05/06 14:49:05;;;;;;;6.83;4.10;;;10.00;99.90;;;;;;5105065;28;20433;-67
2021/05/06 14:51:31;;;;;;;7.13;3.70;;;10.00;99.90;;;;;;5108025;28;21082;-67
2021/05/06 14:53:57;;;;;;;5.73;4.23;;;10.00;99.90;;;;;;5107468;28;20480;-67
2021/05/06 14:56:24;;;;;;;4.63;3.17;;;10.10;99.90;;;;;;5108155;28;20525;-67
2021/05/06 14:58:50;;;;;;;6.20;3.30;;;10.10;99.90;;;;;;5108291;28;20449;-67
2021/05/06 15:01:17;;;;;;;3.93;2.80;;;10.00;99.90;;;;;;5105753;28;20473;-68
2021/05/06 15:03:44;;;;;;;3.93;2.43;;;9.90;99.90;;;;;;5092797;28;20476;-67
2021/05/06 15:06:10;;;;;;;5.63;1.97;;;9.70;99.90;;;;;;5101824;28;20885;-67
2021/05/06 15:08:42;;;;;;;3.40;1.80;;;9.50;99.90;;;;;;5102242;28;20521;-67
2021/05/06 15:11:09;;;;;;;2.67;1.87;;;9.40;99.90;;;;;;5108261;28;20486;-67
2021/05/06 15:13:36;;;;;;;3.50;1.97;;;9.30;99.90;;;;;;5106986;28;21342;-67
2021/05/06 15:16:02;;;;;;;2.77;1.40;;;9.20;99.90;;;;;;5102505;27;20437;-67
2021/05/06 15:18:30;;;;;;;2.83;1.70;;;9.10;99.90;;;;;;5107233;28;21008;-67
2021/05/06 15:20:56;;;;;;;5.90;1.63;;;9.10;99.90;;;;;;5087003;28;20498;-67
2021/05/06 15:23:22;;;;;;;2.40;1.57;;;9.10;99.90;;;;;;5087004;28;20464;-67
2021/05/06 15:25:49;;;;;;;2.17;1.47;;;9.10;99.90;;;;;;5106694;28;20526;-67
2021/05/06 15:28:15;;;;;;;3.80;2.50;;;9.10;99.90;;;;;;5107104;28;20481;-67
2021/05/06 15:30:42;;;;;;;4.03;2.43;;;9.10;99.90;;;;;;5107107;28;20956;-67
2021/05/06 15:33:08;;;;;;;3.13;1.90;;;9.10;99.90;;;;;;5106801;28;20469;-67
2021/05/06 15:35:36;;;;;;;2.57;1.80;;;9.10;99.90;;;;;;5110615;27;20488;-68
2021/05/06 15:38:03;;;;;;;2.97;2.00;;;9.10;99.90;;;;;;5110921;28;20442;-68
2021/05/06 15:40:30;;;;;;;3.23;2.03;;;9.10;99.90;;;;;;5110819;28;21043;-67
2021/05/06 15:42:56;;;;;;;3.57;2.27;;;9.10;99.90;;;;;;5111129;28;21184;-68